Davisburg, Michigan
Current Conditions -  °F | °C
As of 9:53 AM on Tuesday 21 Oct 2014 (Local Time) from KPTK Reporting Station
Light Rain Light Rain  
Wind Chill: 39°   Ceiling: 1300
Heat Index: 45°   Visibility: 9mi
Dew Point: 41°   Wind: 13mph
Humidity: 86%   Direction: 350°N
Pressure: 30"   Gusts: NA
Location:  42.75°N, 83.54°W
Report Text: KPTK 211353Z 35011KT 9SM -RA BKN013 OVC020 07/05 A3000 RMK AO2 RAB36 SLP163 P0000 T00720050
Loading
Personal Weather Stations






























Interactive Weather Map
Tropical Storm Tracking
New forecast layout! Learn more

10-Day Weather Forecast

Advertisements
Track Severe Weather on mobile